Pagina principale
METAR-TAF:

METAR-TAF

Aeroporti :

Aeroporto di Torino-Caselle

Torino, Italia

latitudine: 45-13N, longitudine: 007-39E, altezza: 301 m

Osservazione

Il bollettino è stato emesso 23 minuti fa, alle 20:20 UTC
Vento 3 kt da nord-ovest, variando fra ovest e nord/nord-ovest
Temperature 3°C
Umidità 93%
Pressione 1013 hPa
Visibilità 10 km o più
nessuna nube inferiore a 1500 m e nessun cumulonembo

METAR: LIMF 182020Z 32003KT 280V340 CAVOK 03/02 Q1013

Ora: 21:43 (20:43 UTC)

Previsione

Il bollettino è stato emesso 3 ore e 43 minuti fa, alle 17:00 UTC
Previsione valida dal 18 alle 18 UTC al 19 alle 18 UTC
Vento 5 kt da direzioni variabili
Visibilità 10 km o più
Nubi sparse ad un'altezza di 6000 ft
Evoluzione graduale
dal 19 alle 07 UTC al 19 alle 10 UTC
Vento 10 kt da est/nord-est
Visibilità: 3000 m
Nuvoloso ad un'altezza di 1200 ft
Nuvoloso ad un'altezza di 4000 ft
pioviggine

TAF: LIMF 181700Z 1818/1918 VRB05KT 9999 SCT060 BECMG 1907/1910 07010KT 3000 DZ BKN012 BKN040

Osservazioni e previsioni meteorologiche di più di 4000 aeroporti (messaggi METAR e TAF).

Le stazioni disponibili sono rappresentate dai dischi gialli e rossi sulla carta.

Puntare il mouse per vedere il nome della stazione.

Clicca sopra per visualizzare le osservazioni e previsioni meteorologiche.

Per cambiare la mappa : fare clic sui pulsanti verdi con una croce nera per ingrandire, il pulsante verde con un trattino per diminuire, o sulla freccia verde per le mappe adiacenti.


METAR-TAF: